sensor_id;sensor_type;location;lat;lon;timestamp;P1;durP1;ratioP1;P2;durP2;ratioP2
77158;SDS011;66129;45.890;13.714;2023-02-19T00:00:53;93.63;;;38.97;;
77158;SDS011;66129;45.890;13.714;2023-02-19T00:03:19;103.60;;;43.17;;
77158;SDS011;66129;45.890;13.714;2023-02-19T00:05:44;100.82;;;38.35;;
77158;SDS011;66129;45.890;13.714;2023-02-19T00:08:10;97.15;;;40.58;;
77158;SDS011;66129;45.890;13.714;2023-02-19T00:10:35;92.50;;;38.80;;
77158;SDS011;66129;45.890;13.714;2023-02-19T00:13:00;84.78;;;36.95;;
77158;SDS011;66129;45.890;13.714;2023-02-19T00:15:26;87.47;;;35.33;;
77158;SDS011;66129;45.890;13.714;2023-02-19T00:17:51;78.07;;;34.38;;
77158;SDS011;66129;45.890;13.714;2023-02-19T00:20:17;85.75;;;38.15;;
77158;SDS011;66129;45.890;13.714;2023-02-19T00:22:42;82.47;;;34.90;;
77158;SDS011;66129;45.890;13.714;2023-02-19T00:25:08;80.75;;;36.42;;
77158;SDS011;66129;45.890;13.714;2023-02-19T00:27:33;76.00;;;33.13;;
77158;SDS011;66129;45.890;13.714;2023-02-19T00:29:59;83.70;;;34.65;;
77158;SDS011;66129;45.890;13.714;2023-02-19T00:32:25;76.05;;;33.10;;
77158;SDS011;66129;45.890;13.714;2023-02-19T00:34:50;74.43;;;33.50;;
77158;SDS011;66129;45.890;13.714;2023-02-19T00:37:16;74.85;;;33.15;;
77158;SDS011;66129;45.890;13.714;2023-02-19T00:39:42;76.95;;;30.17;;
77158;SDS011;66129;45.890;13.714;2023-02-19T00:42:07;79.97;;;31.83;;
77158;SDS011;66129;45.890;13.714;2023-02-19T00:44:33;66.03;;;32.03;;
77158;SDS011;66129;45.890;13.714;2023-02-19T00:46:58;73.43;;;33.50;;
77158;SDS011;66129;45.890;13.714;2023-02-19T00:49:24;79.70;;;32.78;;
77158;SDS011;66129;45.890;13.714;2023-02-19T00:51:50;75.05;;;32.53;;
77158;SDS011;66129;45.890;13.714;2023-02-19T00:54:17;69.60;;;29.70;;
77158;SDS011;66129;45.890;13.714;2023-02-19T00:56:43;79.03;;;32.50;;
77158;SDS011;66129;45.890;13.714;2023-02-19T00:59:09;97.80;;;41.88;;
77158;SDS011;66129;45.890;13.714;2023-02-19T01:01:35;76.10;;;33.53;;
77158;SDS011;66129;45.890;13.714;2023-02-19T01:04:01;80.60;;;36.70;;
77158;SDS011;66129;45.890;13.714;2023-02-19T01:06:26;78.25;;;32.65;;
77158;SDS011;66129;45.890;13.714;2023-02-19T01:08:54;76.80;;;31.33;;
77158;SDS011;66129;45.890;13.714;2023-02-19T01:11:20;76.05;;;32.25;;
77158;SDS011;66129;45.890;13.714;2023-02-19T01:13:46;77.13;;;31.70;;
77158;SDS011;66129;45.890;13.714;2023-02-19T01:16:16;67.28;;;30.38;;
77158;SDS011;66129;45.890;13.714;2023-02-19T01:18:44;68.32;;;29.95;;
77158;SDS011;66129;45.890;13.714;2023-02-19T01:21:14;69.38;;;29.52;;
77158;SDS011;66129;45.890;13.714;2023-02-19T01:26:09;64.22;;;30.77;;
77158;SDS011;66129;45.890;13.714;2023-02-19T01:28:37;78.47;;;31.10;;
77158;SDS011;66129;45.890;13.714;2023-02-19T01:31:06;72.70;;;30.52;;
77158;SDS011;66129;45.890;13.714;2023-02-19T01:33:35;68.70;;;30.05;;
77158;SDS011;66129;45.890;13.714;2023-02-19T01:36:04;68.32;;;30.00;;
77158;SDS011;66129;45.890;13.714;2023-02-19T01:38:31;65.47;;;30.05;;
77158;SDS011;66129;45.890;13.714;2023-02-19T01:40:57;67.70;;;30.08;;
77158;SDS011;66129;45.890;13.714;2023-02-19T01:43:24;67.30;;;30.90;;
77158;SDS011;66129;45.890;13.714;2023-02-19T01:45:50;59.28;;;26.05;;
77158;SDS011;66129;45.890;13.714;2023-02-19T01:48:17;66.72;;;28.42;;
77158;SDS011;66129;45.890;13.714;2023-02-19T01:50:51;69.53;;;30.00;;
77158;SDS011;66129;45.890;13.714;2023-02-19T01:53:22;70.45;;;30.95;;
77158;SDS011;66129;45.890;13.714;2023-02-19T01:55:51;68.82;;;31.63;;
77158;SDS011;66129;45.890;13.714;2023-02-19T01:58:20;70.15;;;31.80;;
77158;SDS011;66129;45.890;13.714;2023-02-19T02:00:49;71.50;;;30.27;;
77158;SDS011;66129;45.890;13.714;2023-02-19T02:03:16;68.75;;;28.58;;
77158;SDS011;66129;45.890;13.714;2023-02-19T02:05:45;67.50;;;29.80;;
77158;SDS011;66129;45.890;13.714;2023-02-19T02:08:18;69.57;;;29.27;;
77158;SDS011;66129;45.890;13.714;2023-02-19T02:11:03;69.47;;;32.40;;
77158;SDS011;66129;45.890;13.714;2023-02-19T02:13:29;73.68;;;32.85;;
77158;SDS011;66129;45.890;13.714;2023-02-19T02:16:16;71.25;;;30.88;;
77158;SDS011;66129;45.890;13.714;2023-02-19T02:35:26;76.05;;;32.78;;
77158;SDS011;66129;45.890;13.714;2023-02-19T02:37:58;70.30;;;31.17;;
77158;SDS011;66129;45.890;13.714;2023-02-19T02:40:27;74.70;;;32.22;;
77158;SDS011;66129;45.890;13.714;2023-02-19T02:42:56;72.13;;;31.40;;
77158;SDS011;66129;45.890;13.714;2023-02-19T02:47:59;68.45;;;28.42;;
77158;SDS011;66129;45.890;13.714;2023-02-19T02:53:44;70.05;;;32.05;;
77158;SDS011;66129;45.890;13.714;2023-02-19T02:56:33;72.30;;;32.40;;
77158;SDS011;66129;45.890;13.714;2023-02-19T02:59:00;66.50;;;30.10;;
77158;SDS011;66129;45.890;13.714;2023-02-19T03:04:46;69.78;;;30.75;;
77158;SDS011;66129;45.890;13.714;2023-02-19T03:07:44;64.80;;;30.23;;
77158;SDS011;66129;45.890;13.714;2023-02-19T03:10:18;67.22;;;30.15;;
77158;SDS011;66129;45.890;13.714;2023-02-19T03:12:48;63.70;;;28.60;;
77158;SDS011;66129;45.890;13.714;2023-02-19T03:15:46;64.07;;;28.98;;
77158;SDS011;66129;45.890;13.714;2023-02-19T03:18:45;65.47;;;28.25;;
77158;SDS011;66129;45.890;13.714;2023-02-19T03:21:36;66.75;;;30.80;;
77158;SDS011;66129;45.890;13.714;2023-02-19T03:24:03;64.30;;;28.83;;
77158;SDS011;66129;45.890;13.714;2023-02-19T03:26:49;71.95;;;32.10;;
77158;SDS011;66129;45.890;13.714;2023-02-19T03:29:19;67.13;;;29.85;;
77158;SDS011;66129;45.890;13.714;2023-02-19T03:31:48;71.45;;;28.85;;
77158;SDS011;66129;45.890;13.714;2023-02-19T03:34:19;68.45;;;31.27;;
77158;SDS011;66129;45.890;13.714;2023-02-19T03:36:51;68.10;;;29.38;;
77158;SDS011;66129;45.890;13.714;2023-02-19T03:39:21;65.18;;;29.50;;
77158;SDS011;66129;45.890;13.714;2023-02-19T03:41:50;67.30;;;29.23;;
77158;SDS011;66129;45.890;13.714;2023-02-19T03:44:24;62.88;;;27.65;;
77158;SDS011;66129;45.890;13.714;2023-02-19T03:47:26;68.45;;;30.17;;
77158;SDS011;66129;45.890;13.714;2023-02-19T03:49:58;58.10;;;28.60;;
77158;SDS011;66129;45.890;13.714;2023-02-19T04:05:48;64.90;;;27.83;;
77158;SDS011;66129;45.890;13.714;2023-02-19T04:08:20;66.38;;;28.73;;
77158;SDS011;66129;45.890;13.714;2023-02-19T04:10:48;65.55;;;29.25;;
77158;SDS011;66129;45.890;13.714;2023-02-19T04:13:20;65.65;;;28.02;;
77158;SDS011;66129;45.890;13.714;2023-02-19T04:15:49;63.53;;;28.90;;
77158;SDS011;66129;45.890;13.714;2023-02-19T04:18:18;63.17;;;29.05;;
77158;SDS011;66129;45.890;13.714;2023-02-19T04:20:51;68.78;;;28.63;;
77158;SDS011;66129;45.890;13.714;2023-02-19T04:23:18;68.68;;;28.85;;
77158;SDS011;66129;45.890;13.714;2023-02-19T04:25:49;72.63;;;31.10;;
77158;SDS011;66129;45.890;13.714;2023-02-19T04:28:18;70.35;;;30.60;;
77158;SDS011;66129;45.890;13.714;2023-02-19T04:30:44;70.20;;;30.42;;
77158;SDS011;66129;45.890;13.714;2023-02-19T04:33:10;70.28;;;30.45;;
77158;SDS011;66129;45.890;13.714;2023-02-19T04:35:36;73.15;;;32.38;;
77158;SDS011;66129;45.890;13.714;2023-02-19T04:38:02;76.13;;;33.72;;
77158;SDS011;66129;45.890;13.714;2023-02-19T04:40:27;70.15;;;32.25;;
77158;SDS011;66129;45.890;13.714;2023-02-19T04:42:53;64.53;;;27.10;;
77158;SDS011;66129;45.890;13.714;2023-02-19T04:45:18;70.25;;;29.48;;
77158;SDS011;66129;45.890;13.714;2023-02-19T04:47:44;66.65;;;31.05;;
77158;SDS011;66129;45.890;13.714;2023-02-19T04:50:09;69.13;;;30.00;;
77158;SDS011;66129;45.890;13.714;2023-02-19T04:52:35;68.88;;;29.40;;
77158;SDS011;66129;45.890;13.714;2023-02-19T04:55:00;61.72;;;28.65;;
77158;SDS011;66129;45.890;13.714;2023-02-19T04:57:26;68.97;;;30.50;;
77158;SDS011;66129;45.890;13.714;2023-02-19T04:59:51;80.00;;;32.30;;
77158;SDS011;66129;45.890;13.714;2023-02-19T05:02:17;73.57;;;33.15;;
77158;SDS011;66129;45.890;13.714;2023-02-19T05:04:43;76.80;;;33.03;;
77158;SDS011;66129;45.890;13.714;2023-02-19T05:07:08;73.07;;;30.20;;
77158;SDS011;66129;45.890;13.714;2023-02-19T05:09:34;76.47;;;32.47;;
77158;SDS011;66129;45.890;13.714;2023-02-19T05:11:59;66.13;;;30.67;;
77158;SDS011;66129;45.890;13.714;2023-02-19T05:14:25;81.68;;;36.30;;
77158;SDS011;66129;45.890;13.714;2023-02-19T05:16:50;74.18;;;33.03;;
77158;SDS011;66129;45.890;13.714;2023-02-19T05:19:16;66.10;;;29.02;;
77158;SDS011;66129;45.890;13.714;2023-02-19T05:21:42;70.20;;;30.17;;
77158;SDS011;66129;45.890;13.714;2023-02-19T05:24:07;65.57;;;30.27;;
77158;SDS011;66129;45.890;13.714;2023-02-19T05:26:33;65.22;;;29.80;;
77158;SDS011;66129;45.890;13.714;2023-02-19T05:28:59;65.93;;;30.35;;
77158;SDS011;66129;45.890;13.714;2023-02-19T05:31:25;68.80;;;30.77;;
77158;SDS011;66129;45.890;13.714;2023-02-19T05:33:50;65.93;;;29.02;;
77158;SDS011;66129;45.890;13.714;2023-02-19T05:36:17;64.22;;;28.88;;
77158;SDS011;66129;45.890;13.714;2023-02-19T05:38:44;67.57;;;29.45;;
77158;SDS011;66129;45.890;13.714;2023-02-19T05:41:11;69.63;;;30.80;;
77158;SDS011;66129;45.890;13.714;2023-02-19T05:43:39;64.88;;;29.02;;
77158;SDS011;66129;45.890;13.714;2023-02-19T05:46:05;65.80;;;28.90;;
77158;SDS011;66129;45.890;13.714;2023-02-19T05:48:31;59.88;;;28.15;;
77158;SDS011;66129;45.890;13.714;2023-02-19T05:51:04;80.47;;;33.47;;
77158;SDS011;66129;45.890;13.714;2023-02-19T05:53:32;91.70;;;39.28;;
77158;SDS011;66129;45.890;13.714;2023-02-19T05:55:58;68.20;;;29.60;;
77158;SDS011;66129;45.890;13.714;2023-02-19T05:58:24;62.08;;;27.98;;
77158;SDS011;66129;45.890;13.714;2023-02-19T06:00:50;64.57;;;27.88;;
77158;SDS011;66129;45.890;13.714;2023-02-19T06:03:19;76.57;;;32.13;;
77158;SDS011;66129;45.890;13.714;2023-02-19T06:05:48;74.68;;;34.28;;
77158;SDS011;66129;45.890;13.714;2023-02-19T06:08:15;67.47;;;29.52;;
77158;SDS011;66129;45.890;13.714;2023-02-19T06:10:41;64.63;;;29.27;;
77158;SDS011;66129;45.890;13.714;2023-02-19T06:13:11;66.00;;;30.42;;
77158;SDS011;66129;45.890;13.714;2023-02-19T06:15:37;63.63;;;29.15;;
77158;SDS011;66129;45.890;13.714;2023-02-19T06:18:02;67.80;;;27.75;;
77158;SDS011;66129;45.890;13.714;2023-02-19T06:20:28;69.15;;;32.00;;
77158;SDS011;66129;45.890;13.714;2023-02-19T06:22:54;66.68;;;29.83;;
77158;SDS011;66129;45.890;13.714;2023-02-19T06:25:20;66.10;;;29.15;;
77158;SDS011;66129;45.890;13.714;2023-02-19T06:27:45;65.22;;;29.25;;
77158;SDS011;66129;45.890;13.714;2023-02-19T06:30:11;57.60;;;26.65;;
77158;SDS011;66129;45.890;13.714;2023-02-19T06:32:37;89.53;;;45.00;;
77158;SDS011;66129;45.890;13.714;2023-02-19T06:35:03;148.05;;;81.32;;
77158;SDS011;66129;45.890;13.714;2023-02-19T06:37:29;132.82;;;72.50;;
77158;SDS011;66129;45.890;13.714;2023-02-19T06:39:55;99.30;;;53.70;;
77158;SDS011;66129;45.890;13.714;2023-02-19T06:42:21;92.00;;;50.05;;
77158;SDS011;66129;45.890;13.714;2023-02-19T06:44:46;72.03;;;34.47;;
77158;SDS011;66129;45.890;13.714;2023-02-19T06:47:12;74.82;;;34.78;;
77158;SDS011;66129;45.890;13.714;2023-02-19T06:49:38;77.40;;;33.28;;
77158;SDS011;66129;45.890;13.714;2023-02-19T06:52:04;76.72;;;37.33;;
77158;SDS011;66129;45.890;13.714;2023-02-19T06:54:30;76.97;;;33.80;;
77158;SDS011;66129;45.890;13.714;2023-02-19T06:56:57;74.85;;;33.35;;
77158;SDS011;66129;45.890;13.714;2023-02-19T06:59:23;80.20;;;37.33;;
77158;SDS011;66129;45.890;13.714;2023-02-19T07:01:50;72.97;;;34.35;;
77158;SDS011;66129;45.890;13.714;2023-02-19T07:04:15;77.30;;;35.58;;
77158;SDS011;66129;45.890;13.714;2023-02-19T07:06:41;76.45;;;35.25;;
77158;SDS011;66129;45.890;13.714;2023-02-19T07:09:07;71.30;;;30.95;;
77158;SDS011;66129;45.890;13.714;2023-02-19T07:11:34;74.90;;;34.20;;
77158;SDS011;66129;45.890;13.714;2023-02-19T07:14:02;68.38;;;30.67;;
77158;SDS011;66129;45.890;13.714;2023-02-19T07:16:29;68.47;;;30.38;;
77158;SDS011;66129;45.890;13.714;2023-02-19T07:18:55;72.30;;;31.55;;
77158;SDS011;66129;45.890;13.714;2023-02-19T07:21:22;76.43;;;34.60;;
77158;SDS011;66129;45.890;13.714;2023-02-19T07:23:48;74.18;;;33.13;;
77158;SDS011;66129;45.890;13.714;2023-02-19T07:26:15;77.95;;;36.92;;
77158;SDS011;66129;45.890;13.714;2023-02-19T07:28:42;78.32;;;35.35;;
77158;SDS011;66129;45.890;13.714;2023-02-19T07:31:08;79.28;;;34.50;;
77158;SDS011;66129;45.890;13.714;2023-02-19T07:33:34;79.53;;;35.95;;
77158;SDS011;66129;45.890;13.714;2023-02-19T07:35:59;71.60;;;32.60;;
77158;SDS011;66129;45.890;13.714;2023-02-19T07:38:26;79.95;;;38.00;;
77158;SDS011;66129;45.890;13.714;2023-02-19T07:40:55;83.45;;;39.25;;
77158;SDS011;66129;45.890;13.714;2023-02-19T07:43:25;80.35;;;36.80;;
77158;SDS011;66129;45.890;13.714;2023-02-19T07:45:52;83.63;;;38.67;;
77158;SDS011;66129;45.890;13.714;2023-02-19T07:48:18;82.60;;;39.25;;
77158;SDS011;66129;45.890;13.714;2023-02-19T07:50:51;103.75;;;52.03;;
77158;SDS011;66129;45.890;13.714;2023-02-19T07:53:20;78.35;;;40.45;;
77158;SDS011;66129;45.890;13.714;2023-02-19T07:55:49;70.55;;;35.10;;
77158;SDS011;66129;45.890;13.714;2023-02-19T07:58:15;72.93;;;32.75;;
77158;SDS011;66129;45.890;13.714;2023-02-19T08:00:40;76.55;;;33.45;;
77158;SDS011;66129;45.890;13.714;2023-02-19T08:03:06;67.53;;;31.00;;
77158;SDS011;66129;45.890;13.714;2023-02-19T08:05:39;61.08;;;29.77;;
77158;SDS011;66129;45.890;13.714;2023-02-19T08:08:10;65.38;;;32.67;;
77158;SDS011;66129;45.890;13.714;2023-02-19T08:10:37;71.07;;;32.97;;
77158;SDS011;66129;45.890;13.714;2023-02-19T08:18:44;61.50;;;28.23;;
77158;SDS011;66129;45.890;13.714;2023-02-19T08:21:10;60.65;;;29.02;;
77158;SDS011;66129;45.890;13.714;2023-02-19T08:23:37;65.95;;;31.80;;
77158;SDS011;66129;45.890;13.714;2023-02-19T08:26:03;62.15;;;31.67;;
77158;SDS011;66129;45.890;13.714;2023-02-19T08:28:29;56.53;;;28.63;;
77158;SDS011;66129;45.890;13.714;2023-02-19T08:30:59;60.78;;;30.30;;
77158;SDS011;66129;45.890;13.714;2023-02-19T08:33:27;59.30;;;28.23;;
77158;SDS011;66129;45.890;13.714;2023-02-19T08:35:52;60.95;;;29.60;;
77158;SDS011;66129;45.890;13.714;2023-02-19T08:38:18;53.45;;;28.02;;
77158;SDS011;66129;45.890;13.714;2023-02-19T08:40:44;58.72;;;28.45;;
77158;SDS011;66129;45.890;13.714;2023-02-19T08:43:10;55.53;;;26.35;;
77158;SDS011;66129;45.890;13.714;2023-02-19T08:45:39;58.88;;;28.10;;
77158;SDS011;66129;45.890;13.714;2023-02-19T08:48:06;54.60;;;27.50;;
77158;SDS011;66129;45.890;13.714;2023-02-19T08:50:40;51.85;;;26.75;;
77158;SDS011;66129;45.890;13.714;2023-02-19T08:53:06;55.22;;;29.00;;
77158;SDS011;66129;45.890;13.714;2023-02-19T08:55:32;61.40;;;33.25;;
77158;SDS011;66129;45.890;13.714;2023-02-19T08:57:58;56.10;;;24.95;;
77158;SDS011;66129;45.890;13.714;2023-02-19T09:00:24;53.92;;;25.25;;
77158;SDS011;66129;45.890;13.714;2023-02-19T09:02:49;50.75;;;24.20;;
77158;SDS011;66129;45.890;13.714;2023-02-19T09:05:15;52.85;;;23.58;;
77158;SDS011;66129;45.890;13.714;2023-02-19T09:07:41;51.20;;;26.60;;
77158;SDS011;66129;45.890;13.714;2023-02-19T09:10:09;47.92;;;23.75;;
77158;SDS011;66129;45.890;13.714;2023-02-19T09:12:36;51.25;;;23.88;;
77158;SDS011;66129;45.890;13.714;2023-02-19T09:15:03;55.95;;;26.25;;
77158;SDS011;66129;45.890;13.714;2023-02-19T09:17:29;48.33;;;26.48;;
77158;SDS011;66129;45.890;13.714;2023-02-19T09:19:54;63.13;;;32.33;;
77158;SDS011;66129;45.890;13.714;2023-02-19T09:22:20;65.32;;;31.63;;
77158;SDS011;66129;45.890;13.714;2023-02-19T09:24:45;57.88;;;29.25;;
77158;SDS011;66129;45.890;13.714;2023-02-19T09:27:14;58.88;;;29.65;;
77158;SDS011;66129;45.890;13.714;2023-02-19T09:29:41;62.35;;;27.67;;
77158;SDS011;66129;45.890;13.714;2023-02-19T09:32:07;63.28;;;30.77;;
77158;SDS011;66129;45.890;13.714;2023-02-19T09:34:32;60.08;;;26.67;;
77158;SDS011;66129;45.890;13.714;2023-02-19T09:36:58;47.85;;;26.05;;
77158;SDS011;66129;45.890;13.714;2023-02-19T09:39:24;56.08;;;25.98;;
77158;SDS011;66129;45.890;13.714;2023-02-19T09:41:50;48.28;;;23.83;;
77158;SDS011;66129;45.890;13.714;2023-02-19T09:46:56;48.10;;;26.08;;
77158;SDS011;66129;45.890;13.714;2023-02-19T09:51:54;51.83;;;27.20;;
77158;SDS011;66129;45.890;13.714;2023-02-19T09:54:29;50.97;;;26.58;;
77158;SDS011;66129;45.890;13.714;2023-02-19T09:56:56;48.58;;;26.73;;
77158;SDS011;66129;45.890;13.714;2023-02-19T09:59:26;59.05;;;28.52;;
77158;SDS011;66129;45.890;13.714;2023-02-19T10:02:26;58.63;;;29.58;;
77158;SDS011;66129;45.890;13.714;2023-02-19T10:04:51;54.42;;;27.17;;
77158;SDS011;66129;45.890;13.714;2023-02-19T10:07:22;51.25;;;25.73;;
77158;SDS011;66129;45.890;13.714;2023-02-19T10:12:37;55.80;;;28.38;;
77158;SDS011;66129;45.890;13.714;2023-02-19T10:15:10;52.88;;;26.95;;
77158;SDS011;66129;45.890;13.714;2023-02-19T10:17:59;56.45;;;26.77;;
77158;SDS011;66129;45.890;13.714;2023-02-19T10:20:26;57.60;;;26.45;;
77158;SDS011;66129;45.890;13.714;2023-02-19T10:23:02;56.20;;;30.75;;
77158;SDS011;66129;45.890;13.714;2023-02-19T10:25:29;58.35;;;31.05;;
77158;SDS011;66129;45.890;13.714;2023-02-19T10:28:00;53.92;;;27.00;;
77158;SDS011;66129;45.890;13.714;2023-02-19T10:30:30;52.88;;;28.50;;
77158;SDS011;66129;45.890;13.714;2023-02-19T10:33:02;54.78;;;28.70;;
77158;SDS011;66129;45.890;13.714;2023-02-19T10:35:34;54.67;;;29.85;;
77158;SDS011;66129;45.890;13.714;2023-02-19T10:38:01;55.10;;;26.83;;
77158;SDS011;66129;45.890;13.714;2023-02-19T10:40:30;47.17;;;24.88;;
77158;SDS011;66129;45.890;13.714;2023-02-19T10:43:07;46.00;;;24.08;;
77158;SDS011;66129;45.890;13.714;2023-02-19T10:51:55;46.03;;;25.00;;
77158;SDS011;66129;45.890;13.714;2023-02-19T10:55:13;43.78;;;23.25;;
77158;SDS011;66129;45.890;13.714;2023-02-19T10:58:19;49.35;;;25.50;;
77158;SDS011;66129;45.890;13.714;2023-02-19T11:04:15;47.00;;;23.75;;
77158;SDS011;66129;45.890;13.714;2023-02-19T11:06:47;45.72;;;25.17;;
77158;SDS011;66129;45.890;13.714;2023-02-19T11:09:33;52.72;;;25.38;;
77158;SDS011;66129;45.890;13.714;2023-02-19T11:12:02;50.80;;;24.75;;
77158;SDS011;66129;45.890;13.714;2023-02-19T11:14:29;51.13;;;25.40;;
77158;SDS011;66129;45.890;13.714;2023-02-19T11:16:58;50.38;;;27.23;;
77158;SDS011;66129;45.890;13.714;2023-02-19T11:19:41;50.60;;;27.65;;
77158;SDS011;66129;45.890;13.714;2023-02-19T11:25:04;53.08;;;26.38;;
77158;SDS011;66129;45.890;13.714;2023-02-19T11:30:45;46.83;;;25.05;;
77158;SDS011;66129;45.890;13.714;2023-02-19T11:35:40;57.88;;;32.53;;
77158;SDS011;66129;45.890;13.714;2023-02-19T11:38:07;62.00;;;33.28;;
77158;SDS011;66129;45.890;13.714;2023-02-19T11:40:37;64.25;;;33.50;;
77158;SDS011;66129;45.890;13.714;2023-02-19T11:43:08;72.10;;;40.42;;
77158;SDS011;66129;45.890;13.714;2023-02-19T11:45:47;59.38;;;32.15;;
77158;SDS011;66129;45.890;13.714;2023-02-19T11:48:38;49.55;;;27.23;;
77158;SDS011;66129;45.890;13.714;2023-02-19T12:00:23;55.22;;;28.55;;
77158;SDS011;66129;45.890;13.714;2023-02-19T12:03:14;50.17;;;26.58;;
77158;SDS011;66129;45.890;13.714;2023-02-19T12:11:28;51.47;;;25.35;;
77158;SDS011;66129;45.890;13.714;2023-02-19T12:14:37;52.45;;;26.30;;
77158;SDS011;66129;45.890;13.714;2023-02-19T12:20:17;51.40;;;24.95;;
77158;SDS011;66129;45.890;13.714;2023-02-19T12:35:08;49.92;;;26.10;;
77158;SDS011;66129;45.890;13.714;2023-02-19T12:43:17;51.95;;;26.67;;
77158;SDS011;66129;45.890;13.714;2023-02-19T12:46:11;53.22;;;25.95;;
77158;SDS011;66129;45.890;13.714;2023-02-19T12:49:22;62.55;;;30.63;;
77158;SDS011;66129;45.890;13.714;2023-02-19T12:52:19;55.38;;;26.13;;
77158;SDS011;66129;45.890;13.714;2023-02-19T13:08:37;61.60;;;31.08;;
77158;SDS011;66129;45.890;13.714;2023-02-19T13:11:17;60.47;;;30.77;;
77158;SDS011;66129;45.890;13.714;2023-02-19T13:16:53;70.00;;;32.63;;
77158;SDS011;66129;45.890;13.714;2023-02-19T13:19:40;71.65;;;30.92;;
77158;SDS011;66129;45.890;13.714;2023-02-19T13:22:30;68.35;;;31.27;;
77158;SDS011;66129;45.890;13.714;2023-02-19T13:25:23;67.78;;;33.58;;
77158;SDS011;66129;45.890;13.714;2023-02-19T13:28:06;77.90;;;38.75;;
77158;SDS011;66129;45.890;13.714;2023-02-19T13:30:52;64.63;;;32.30;;
77158;SDS011;66129;45.890;13.714;2023-02-19T13:33:25;69.78;;;33.53;;
77158;SDS011;66129;45.890;13.714;2023-02-19T13:36:05;75.03;;;36.28;;
77158;SDS011;66129;45.890;13.714;2023-02-19T13:38:36;77.90;;;36.53;;
77158;SDS011;66129;45.890;13.714;2023-02-19T13:41:16;77.72;;;36.35;;
77158;SDS011;66129;45.890;13.714;2023-02-19T13:43:44;70.13;;;32.55;;
77158;SDS011;66129;45.890;13.714;2023-02-19T13:46:25;77.25;;;36.58;;
77158;SDS011;66129;45.890;13.714;2023-02-19T13:49:23;69.55;;;34.03;;
77158;SDS011;66129;45.890;13.714;2023-02-19T13:51:49;73.22;;;32.47;;
77158;SDS011;66129;45.890;13.714;2023-02-19T13:54:34;74.35;;;36.30;;
77158;SDS011;66129;45.890;13.714;2023-02-19T14:06:01;65.38;;;33.80;;
77158;SDS011;66129;45.890;13.714;2023-02-19T14:19:59;81.18;;;40.38;;
77158;SDS011;66129;45.890;13.714;2023-02-19T14:28:04;76.97;;;38.17;;
77158;SDS011;66129;45.890;13.714;2023-02-19T14:30:34;79.25;;;37.50;;
77158;SDS011;66129;45.890;13.714;2023-02-19T14:33:08;72.88;;;36.05;;
77158;SDS011;66129;45.890;13.714;2023-02-19T14:35:39;78.45;;;37.38;;
77158;SDS011;66129;45.890;13.714;2023-02-19T14:38:20;84.45;;;39.63;;
77158;SDS011;66129;45.890;13.714;2023-02-19T14:40:57;80.60;;;37.97;;
77158;SDS011;66129;45.890;13.714;2023-02-19T14:43:24;73.25;;;36.65;;
77158;SDS011;66129;45.890;13.714;2023-02-19T14:46:08;76.65;;;38.03;;
77158;SDS011;66129;45.890;13.714;2023-02-19T14:48:49;77.47;;;34.35;;
77158;SDS011;66129;45.890;13.714;2023-02-19T14:55:08;71.50;;;32.55;;
77158;SDS011;66129;45.890;13.714;2023-02-19T14:57:54;72.78;;;34.03;;
77158;SDS011;66129;45.890;13.714;2023-02-19T15:00:29;77.68;;;35.53;;
77158;SDS011;66129;45.890;13.714;2023-02-19T15:02:58;77.35;;;38.08;;
77158;SDS011;66129;45.890;13.714;2023-02-19T15:05:43;78.15;;;36.38;;
77158;SDS011;66129;45.890;13.714;2023-02-19T15:08:14;78.43;;;36.47;;
77158;SDS011;66129;45.890;13.714;2023-02-19T15:10:49;75.18;;;35.45;;
77158;SDS011;66129;45.890;13.714;2023-02-19T15:13:17;83.70;;;37.97;;
77158;SDS011;66129;45.890;13.714;2023-02-19T15:15:51;74.43;;;36.28;;
77158;SDS011;66129;45.890;13.714;2023-02-19T15:18:24;89.50;;;40.80;;
77158;SDS011;66129;45.890;13.714;2023-02-19T15:20:57;75.35;;;36.15;;
77158;SDS011;66129;45.890;13.714;2023-02-19T15:23:25;79.15;;;36.80;;
77158;SDS011;66129;45.890;13.714;2023-02-19T15:25:54;75.53;;;36.92;;
77158;SDS011;66129;45.890;13.714;2023-02-19T15:33:25;78.90;;;40.17;;
77158;SDS011;66129;45.890;13.714;2023-02-19T15:35:55;80.53;;;37.90;;
77158;SDS011;66129;45.890;13.714;2023-02-19T15:38:25;78.68;;;37.55;;
77158;SDS011;66129;45.890;13.714;2023-02-19T15:40:52;70.40;;;35.65;;
77158;SDS011;66129;45.890;13.714;2023-02-19T15:43:22;75.57;;;34.83;;
77158;SDS011;66129;45.890;13.714;2023-02-19T15:45:53;71.65;;;35.22;;
77158;SDS011;66129;45.890;13.714;2023-02-19T15:51:18;83.05;;;40.53;;
77158;SDS011;66129;45.890;13.714;2023-02-19T15:53:53;81.97;;;36.55;;
77158;SDS011;66129;45.890;13.714;2023-02-19T15:56:30;90.00;;;44.13;;
77158;SDS011;66129;45.890;13.714;2023-02-19T15:58:59;162.15;;;89.88;;
77158;SDS011;66129;45.890;13.714;2023-02-19T16:01:27;91.60;;;44.70;;
77158;SDS011;66129;45.890;13.714;2023-02-19T16:03:54;90.80;;;45.50;;
77158;SDS011;66129;45.890;13.714;2023-02-19T16:06:24;87.25;;;41.83;;
77158;SDS011;66129;45.890;13.714;2023-02-19T16:13:48;91.10;;;44.00;;
77158;SDS011;66129;45.890;13.714;2023-02-19T16:16:17;89.50;;;43.53;;
77158;SDS011;66129;45.890;13.714;2023-02-19T16:18:49;83.60;;;43.50;;
77158;SDS011;66129;45.890;13.714;2023-02-19T16:21:16;82.53;;;38.88;;
77158;SDS011;66129;45.890;13.714;2023-02-19T16:23:46;77.93;;;32.92;;
77158;SDS011;66129;45.890;13.714;2023-02-19T16:26:14;74.75;;;35.30;;
77158;SDS011;66129;45.890;13.714;2023-02-19T16:28:39;73.03;;;34.42;;
77158;SDS011;66129;45.890;13.714;2023-02-19T16:31:10;74.38;;;37.42;;
77158;SDS011;66129;45.890;13.714;2023-02-19T16:41:43;83.22;;;40.75;;
77158;SDS011;66129;45.890;13.714;2023-02-19T16:49:38;85.07;;;40.60;;
77158;SDS011;66129;45.890;13.714;2023-02-19T16:52:13;88.50;;;41.55;;
77158;SDS011;66129;45.890;13.714;2023-02-19T16:54:47;84.82;;;39.83;;
77158;SDS011;66129;45.890;13.714;2023-02-19T16:57:13;80.80;;;39.53;;
77158;SDS011;66129;45.890;13.714;2023-02-19T16:59:39;79.93;;;39.33;;
77158;SDS011;66129;45.890;13.714;2023-02-19T17:02:05;76.10;;;41.70;;
77158;SDS011;66129;45.890;13.714;2023-02-19T17:04:34;80.63;;;39.50;;
77158;SDS011;66129;45.890;13.714;2023-02-19T17:07:00;82.55;;;41.58;;
77158;SDS011;66129;45.890;13.714;2023-02-19T17:09:26;80.65;;;39.08;;
77158;SDS011;66129;45.890;13.714;2023-02-19T17:11:52;79.38;;;36.17;;
77158;SDS011;66129;45.890;13.714;2023-02-19T17:14:17;81.75;;;39.25;;
77158;SDS011;66129;45.890;13.714;2023-02-19T17:16:46;74.72;;;38.28;;
77158;SDS011;66129;45.890;13.714;2023-02-19T17:19:13;82.65;;;38.85;;
77158;SDS011;66129;45.890;13.714;2023-02-19T17:21:40;82.40;;;39.38;;
77158;SDS011;66129;45.890;13.714;2023-02-19T17:24:05;82.97;;;37.42;;
77158;SDS011;66129;45.890;13.714;2023-02-19T17:26:32;85.85;;;41.00;;
77158;SDS011;66129;45.890;13.714;2023-02-19T17:28:58;78.25;;;37.92;;